sensor_id;sensor_type;location;lat;lon;timestamp;P1;durP1;ratioP1;P2;durP2;ratioP2
25045;SDS011;13044;49.304;12.840;2023-08-30T00:01:12;2.42;;;2.20;;
25045;SDS011;13044;49.304;12.840;2023-08-30T00:03:39;2.63;;;2.42;;
25045;SDS011;13044;49.304;12.840;2023-08-30T00:06:06;2.10;;;2.00;;
25045;SDS011;13044;49.304;12.840;2023-08-30T00:08:33;2.17;;;2.08;;
25045;SDS011;13044;49.304;12.840;2023-08-30T00:11:01;2.30;;;2.20;;
25045;SDS011;13044;49.304;12.840;2023-08-30T00:13:29;3.13;;;2.40;;
25045;SDS011;13044;49.304;12.840;2023-08-30T00:15:58;2.30;;;2.20;;
25045;SDS011;13044;49.304;12.840;2023-08-30T00:18:25;2.75;;;2.13;;
25045;SDS011;13044;49.304;12.840;2023-08-30T00:20:52;2.30;;;2.13;;
25045;SDS011;13044;49.304;12.840;2023-08-30T00:23:19;2.42;;;2.22;;
25045;SDS011;13044;49.304;12.840;2023-08-30T00:25:46;2.60;;;2.25;;
25045;SDS011;13044;49.304;12.840;2023-08-30T00:28:13;2.25;;;2.05;;
25045;SDS011;13044;49.304;12.840;2023-08-30T00:30:40;2.50;;;2.30;;
25045;SDS011;13044;49.304;12.840;2023-08-30T00:33:07;2.47;;;2.38;;
25045;SDS011;13044;49.304;12.840;2023-08-30T00:35:34;2.92;;;2.42;;
25045;SDS011;13044;49.304;12.840;2023-08-30T00:38:01;2.50;;;2.30;;
25045;SDS011;13044;49.304;12.840;2023-08-30T00:40:29;2.55;;;2.17;;
25045;SDS011;13044;49.304;12.840;2023-08-30T00:43:06;2.50;;;2.30;;
25045;SDS011;13044;49.304;12.840;2023-08-30T00:45:34;3.60;;;2.40;;
25045;SDS011;13044;49.304;12.840;2023-08-30T00:48:05;2.40;;;2.20;;
25045;SDS011;13044;49.304;12.840;2023-08-30T00:50:33;2.40;;;2.20;;
25045;SDS011;13044;49.304;12.840;2023-08-30T00:53:01;2.50;;;2.30;;
25045;SDS011;13044;49.304;12.840;2023-08-30T00:55:32;2.33;;;2.20;;
25045;SDS011;13044;49.304;12.840;2023-08-30T00:58:04;2.60;;;2.40;;
25045;SDS011;13044;49.304;12.840;2023-08-30T01:00:32;3.55;;;2.70;;
25045;SDS011;13044;49.304;12.840;2023-08-30T01:03:00;2.60;;;2.40;;
25045;SDS011;13044;49.304;12.840;2023-08-30T01:05:27;2.58;;;2.38;;
25045;SDS011;13044;49.304;12.840;2023-08-30T01:07:54;3.08;;;2.70;;
25045;SDS011;13044;49.304;12.840;2023-08-30T01:10:23;2.97;;;2.75;;
25045;SDS011;13044;49.304;12.840;2023-08-30T01:13:05;2.67;;;2.47;;
25045;SDS011;13044;49.304;12.840;2023-08-30T01:15:39;2.58;;;2.35;;
25045;SDS011;13044;49.304;12.840;2023-08-30T01:18:08;2.60;;;2.40;;
25045;SDS011;13044;49.304;12.840;2023-08-30T01:20:37;2.88;;;2.67;;
25045;SDS011;13044;49.304;12.840;2023-08-30T01:23:13;2.60;;;2.40;;
25045;SDS011;13044;49.304;12.840;2023-08-30T01:26:11;3.58;;;2.70;;
25045;SDS011;13044;49.304;12.840;2023-08-30T01:28:49;3.15;;;2.55;;
25045;SDS011;13044;49.304;12.840;2023-08-30T01:31:17;3.22;;;2.80;;
25045;SDS011;13044;49.304;12.840;2023-08-30T01:33:45;2.70;;;2.50;;
25045;SDS011;13044;49.304;12.840;2023-08-30T01:36:13;3.03;;;2.63;;
25045;SDS011;13044;49.304;12.840;2023-08-30T01:38:40;2.85;;;2.65;;
25045;SDS011;13044;49.304;12.840;2023-08-30T01:41:08;2.80;;;2.60;;
25045;SDS011;13044;49.304;12.840;2023-08-30T01:43:35;3.50;;;3.20;;
25045;SDS011;13044;49.304;12.840;2023-08-30T01:46:03;3.15;;;2.85;;
25045;SDS011;13044;49.304;12.840;2023-08-30T01:48:31;2.72;;;2.50;;
25045;SDS011;13044;49.304;12.840;2023-08-30T01:51:00;2.95;;;2.75;;
25045;SDS011;13044;49.304;12.840;2023-08-30T01:53:27;3.08;;;2.78;;
25045;SDS011;13044;49.304;12.840;2023-08-30T01:55:55;2.92;;;2.72;;
25045;SDS011;13044;49.304;12.840;2023-08-30T01:58:21;2.92;;;2.72;;
25045;SDS011;13044;49.304;12.840;2023-08-30T02:00:48;3.10;;;2.90;;
25045;SDS011;13044;49.304;12.840;2023-08-30T02:03:15;3.03;;;2.83;;
25045;SDS011;13044;49.304;12.840;2023-08-30T02:05:45;3.28;;;3.00;;
25045;SDS011;13044;49.304;12.840;2023-08-30T02:08:35;2.80;;;2.60;;
25045;SDS011;13044;49.304;12.840;2023-08-30T02:11:49;3.65;;;2.85;;
25045;SDS011;13044;49.304;12.840;2023-08-30T02:14:19;2.70;;;2.50;;
25045;SDS011;13044;49.304;12.840;2023-08-30T02:16:47;2.70;;;2.42;;
25045;SDS011;13044;49.304;12.840;2023-08-30T02:19:14;3.10;;;2.90;;
25045;SDS011;13044;49.304;12.840;2023-08-30T02:21:43;2.95;;;2.70;;
25045;SDS011;13044;49.304;12.840;2023-08-30T02:24:10;2.92;;;2.67;;
25045;SDS011;13044;49.304;12.840;2023-08-30T02:26:37;3.50;;;3.20;;
25045;SDS011;13044;49.304;12.840;2023-08-30T02:29:04;3.33;;;3.03;;
25045;SDS011;13044;49.304;12.840;2023-08-30T02:31:31;3.65;;;3.10;;
25045;SDS011;13044;49.304;12.840;2023-08-30T02:33:58;3.97;;;3.67;;
25045;SDS011;13044;49.304;12.840;2023-08-30T02:36:25;3.15;;;2.95;;
25045;SDS011;13044;49.304;12.840;2023-08-30T02:38:51;3.95;;;2.78;;
25045;SDS011;13044;49.304;12.840;2023-08-30T02:41:18;2.75;;;2.55;;
25045;SDS011;13044;49.304;12.840;2023-08-30T02:43:45;2.97;;;2.67;;
25045;SDS011;13044;49.304;12.840;2023-08-30T02:46:12;3.10;;;2.90;;
25045;SDS011;13044;49.304;12.840;2023-08-30T02:48:39;5.28;;;3.45;;
25045;SDS011;13044;49.304;12.840;2023-08-30T02:51:05;4.20;;;3.58;;
25045;SDS011;13044;49.304;12.840;2023-08-30T02:53:32;3.72;;;3.42;;
25045;SDS011;13044;49.304;12.840;2023-08-30T02:55:59;3.22;;;2.97;;
25045;SDS011;13044;49.304;12.840;2023-08-30T02:58:26;3.58;;;3.28;;
25045;SDS011;13044;49.304;12.840;2023-08-30T03:00:53;3.97;;;2.80;;
25045;SDS011;13044;49.304;12.840;2023-08-30T03:03:20;4.13;;;3.47;;
25045;SDS011;13044;49.304;12.840;2023-08-30T03:05:47;3.13;;;2.90;;
25045;SDS011;13044;49.304;12.840;2023-08-30T03:08:16;4.15;;;3.08;;
25045;SDS011;13044;49.304;12.840;2023-08-30T03:10:42;3.83;;;3.42;;
25045;SDS011;13044;49.304;12.840;2023-08-30T03:13:09;3.60;;;3.30;;
25045;SDS011;13044;49.304;12.840;2023-08-30T03:15:36;2.97;;;2.78;;
25045;SDS011;13044;49.304;12.840;2023-08-30T03:18:03;2.92;;;2.72;;
25045;SDS011;13044;49.304;12.840;2023-08-30T03:20:30;3.83;;;3.00;;
25045;SDS011;13044;49.304;12.840;2023-08-30T03:22:57;4.10;;;3.70;;
25045;SDS011;13044;49.304;12.840;2023-08-30T03:25:24;3.15;;;2.95;;
25045;SDS011;13044;49.304;12.840;2023-08-30T03:27:51;3.13;;;2.92;;
25045;SDS011;13044;49.304;12.840;2023-08-30T03:30:18;3.38;;;3.08;;
25045;SDS011;13044;49.304;12.840;2023-08-30T03:32:45;3.45;;;3.08;;
25045;SDS011;13044;49.304;12.840;2023-08-30T03:35:12;5.00;;;3.15;;
25045;SDS011;13044;49.304;12.840;2023-08-30T03:37:41;4.35;;;3.38;;
25045;SDS011;13044;49.304;12.840;2023-08-30T03:40:08;3.80;;;3.20;;
25045;SDS011;13044;49.304;12.840;2023-08-30T03:42:35;3.45;;;3.15;;
25045;SDS011;13044;49.304;12.840;2023-08-30T03:45:02;5.57;;;3.30;;
25045;SDS011;13044;49.304;12.840;2023-08-30T03:47:31;3.38;;;3.08;;
25045;SDS011;13044;49.304;12.840;2023-08-30T03:49:58;3.47;;;2.70;;
25045;SDS011;13044;49.304;12.840;2023-08-30T03:52:25;4.82;;;2.80;;
25045;SDS011;13044;49.304;12.840;2023-08-30T03:54:52;3.33;;;3.03;;
25045;SDS011;13044;49.304;12.840;2023-08-30T03:57:19;4.63;;;3.28;;
25045;SDS011;13044;49.304;12.840;2023-08-30T03:59:46;3.22;;;3.00;;
25045;SDS011;13044;49.304;12.840;2023-08-30T04:02:12;4.30;;;3.40;;
25045;SDS011;13044;49.304;12.840;2023-08-30T04:04:39;3.60;;;3.30;;
25045;SDS011;13044;49.304;12.840;2023-08-30T04:07:06;4.40;;;4.00;;
25045;SDS011;13044;49.304;12.840;2023-08-30T04:09:33;3.78;;;3.45;;
25045;SDS011;13044;49.304;12.840;2023-08-30T04:12:00;6.93;;;3.28;;
25045;SDS011;13044;49.304;12.840;2023-08-30T04:14:27;4.25;;;3.72;;
25045;SDS011;13044;49.304;12.840;2023-08-30T04:16:54;4.20;;;3.20;;
25045;SDS011;13044;49.304;12.840;2023-08-30T04:19:21;3.35;;;3.05;;
25045;SDS011;13044;49.304;12.840;2023-08-30T04:21:47;4.80;;;3.10;;
25045;SDS011;13044;49.304;12.840;2023-08-30T04:24:14;3.10;;;2.80;;
25045;SDS011;13044;49.304;12.840;2023-08-30T04:26:41;3.65;;;3.20;;
25045;SDS011;13044;49.304;12.840;2023-08-30T04:29:08;3.80;;;3.50;;
25045;SDS011;13044;49.304;12.840;2023-08-30T04:31:35;3.00;;;2.70;;
25045;SDS011;13044;49.304;12.840;2023-08-30T04:34:02;3.05;;;2.80;;
25045;SDS011;13044;49.304;12.840;2023-08-30T04:36:29;2.90;;;2.70;;
25045;SDS011;13044;49.304;12.840;2023-08-30T04:38:56;3.00;;;2.80;;
25045;SDS011;13044;49.304;12.840;2023-08-30T04:41:28;5.00;;;3.50;;
25045;SDS011;13044;49.304;12.840;2023-08-30T04:43:55;4.82;;;3.60;;
25045;SDS011;13044;49.304;12.840;2023-08-30T04:46:22;3.40;;;3.10;;
25045;SDS011;13044;49.304;12.840;2023-08-30T04:48:49;3.35;;;3.05;;
25045;SDS011;13044;49.304;12.840;2023-08-30T04:51:17;3.70;;;3.40;;
25045;SDS011;13044;49.304;12.840;2023-08-30T04:53:43;3.83;;;3.53;;
25045;SDS011;13044;49.304;12.840;2023-08-30T04:56:11;4.25;;;3.15;;
25045;SDS011;13044;49.304;12.840;2023-08-30T04:58:39;3.75;;;3.35;;
25045;SDS011;13044;49.304;12.840;2023-08-30T05:01:06;3.20;;;3.00;;
25045;SDS011;13044;49.304;12.840;2023-08-30T05:03:33;4.10;;;3.70;;
25045;SDS011;13044;49.304;12.840;2023-08-30T05:06:00;4.60;;;4.20;;
25045;SDS011;13044;49.304;12.840;2023-08-30T05:08:27;3.97;;;3.67;;
25045;SDS011;13044;49.304;12.840;2023-08-30T05:10:54;4.30;;;3.17;;
25045;SDS011;13044;49.304;12.840;2023-08-30T05:13:21;5.93;;;3.28;;
25045;SDS011;13044;49.304;12.840;2023-08-30T05:15:48;3.70;;;3.40;;
25045;SDS011;13044;49.304;12.840;2023-08-30T05:18:15;3.50;;;3.17;;
25045;SDS011;13044;49.304;12.840;2023-08-30T05:20:42;4.43;;;3.58;;
25045;SDS011;13044;49.304;12.840;2023-08-30T05:23:09;3.13;;;2.92;;
25045;SDS011;13044;49.304;12.840;2023-08-30T05:25:36;3.10;;;2.80;;
25045;SDS011;13044;49.304;12.840;2023-08-30T05:28:03;3.42;;;3.13;;
25045;SDS011;13044;49.304;12.840;2023-08-30T05:30:30;3.13;;;2.92;;
25045;SDS011;13044;49.304;12.840;2023-08-30T05:32:57;4.05;;;3.50;;
25045;SDS011;13044;49.304;12.840;2023-08-30T05:35:24;5.05;;;4.07;;
25045;SDS011;13044;49.304;12.840;2023-08-30T05:37:51;4.82;;;4.03;;
25045;SDS011;13044;49.304;12.840;2023-08-30T05:40:18;5.13;;;4.00;;
25045;SDS011;13044;49.304;12.840;2023-08-30T05:42:45;5.80;;;5.18;;
25045;SDS011;13044;49.304;12.840;2023-08-30T05:45:12;3.97;;;3.55;;
25045;SDS011;13044;49.304;12.840;2023-08-30T05:47:39;4.78;;;3.72;;
25045;SDS011;13044;49.304;12.840;2023-08-30T05:50:06;7.07;;;3.88;;
25045;SDS011;13044;49.304;12.840;2023-08-30T05:52:33;4.47;;;4.07;;
25045;SDS011;13044;49.304;12.840;2023-08-30T05:55:00;3.72;;;3.33;;
25045;SDS011;13044;49.304;12.840;2023-08-30T05:57:27;3.78;;;3.40;;
25045;SDS011;13044;49.304;12.840;2023-08-30T06:00:00;3.83;;;3.50;;
25045;SDS011;13044;49.304;12.840;2023-08-30T06:02:27;5.07;;;4.55;;
25045;SDS011;13044;49.304;12.840;2023-08-30T06:04:54;4.15;;;3.80;;
25045;SDS011;13044;49.304;12.840;2023-08-30T06:07:21;5.30;;;4.82;;
25045;SDS011;13044;49.304;12.840;2023-08-30T06:09:48;5.72;;;4.75;;
25045;SDS011;13044;49.304;12.840;2023-08-30T06:12:15;4.90;;;4.50;;
25045;SDS011;13044;49.304;12.840;2023-08-30T06:14:43;3.88;;;3.47;;
25045;SDS011;13044;49.304;12.840;2023-08-30T06:17:16;3.78;;;3.47;;
25045;SDS011;13044;49.304;12.840;2023-08-30T06:19:43;8.68;;;4.00;;
25045;SDS011;13044;49.304;12.840;2023-08-30T06:22:10;3.72;;;3.42;;
25045;SDS011;13044;49.304;12.840;2023-08-30T06:24:38;4.03;;;3.70;;
25045;SDS011;13044;49.304;12.840;2023-08-30T06:27:05;3.70;;;3.40;;
25045;SDS011;13044;49.304;12.840;2023-08-30T06:29:32;5.13;;;4.10;;
25045;SDS011;13044;49.304;12.840;2023-08-30T06:31:59;4.03;;;3.67;;
25045;SDS011;13044;49.304;12.840;2023-08-30T06:34:26;4.35;;;3.95;;
25045;SDS011;13044;49.304;12.840;2023-08-30T06:36:53;5.35;;;4.47;;
25045;SDS011;13044;49.304;12.840;2023-08-30T06:39:19;4.90;;;4.50;;
25045;SDS011;13044;49.304;12.840;2023-08-30T06:41:46;5.20;;;4.70;;
25045;SDS011;13044;49.304;12.840;2023-08-30T06:44:13;8.00;;;6.07;;
25045;SDS011;13044;49.304;12.840;2023-08-30T06:46:40;5.13;;;4.68;;
25045;SDS011;13044;49.304;12.840;2023-08-30T06:49:07;4.95;;;4.55;;
25045;SDS011;13044;49.304;12.840;2023-08-30T06:51:35;4.75;;;4.35;;
25045;SDS011;13044;49.304;12.840;2023-08-30T06:54:02;6.20;;;5.70;;
25045;SDS011;13044;49.304;12.840;2023-08-30T06:56:29;5.45;;;5.03;;
25045;SDS011;13044;49.304;12.840;2023-08-30T06:58:56;5.25;;;4.60;;
25045;SDS011;13044;49.304;12.840;2023-08-30T07:01:23;5.65;;;5.13;;
25045;SDS011;13044;49.304;12.840;2023-08-30T07:03:50;5.45;;;4.32;;
25045;SDS011;13044;49.304;12.840;2023-08-30T07:06:17;4.97;;;4.57;;
25045;SDS011;13044;49.304;12.840;2023-08-30T07:08:44;5.70;;;5.20;;
25045;SDS011;13044;49.304;12.840;2023-08-30T07:11:11;5.50;;;5.03;;
25045;SDS011;13044;49.304;12.840;2023-08-30T07:13:53;6.03;;;4.95;;
25045;SDS011;13044;49.304;12.840;2023-08-30T07:16:20;4.68;;;4.28;;
25045;SDS011;13044;49.304;12.840;2023-08-30T07:18:47;5.53;;;5.03;;
25045;SDS011;13044;49.304;12.840;2023-08-30T07:21:14;5.70;;;5.20;;
25045;SDS011;13044;49.304;12.840;2023-08-30T07:23:41;6.55;;;5.82;;
25045;SDS011;13044;49.304;12.840;2023-08-30T07:26:07;6.15;;;5.53;;
25045;SDS011;13044;49.304;12.840;2023-08-30T07:28:34;6.68;;;6.07;;
25045;SDS011;13044;49.304;12.840;2023-08-30T07:31:02;5.80;;;5.30;;
25045;SDS011;13044;49.304;12.840;2023-08-30T07:36:07;5.40;;;4.88;;
25045;SDS011;13044;49.304;12.840;2023-08-30T07:38:34;6.40;;;5.80;;
25045;SDS011;13044;49.304;12.840;2023-08-30T07:41:01;6.95;;;6.35;;
25045;SDS011;13044;49.304;12.840;2023-08-30T07:43:28;5.75;;;5.25;;
25045;SDS011;13044;49.304;12.840;2023-08-30T07:45:55;7.85;;;7.15;;
25045;SDS011;13044;49.304;12.840;2023-08-30T07:48:23;7.00;;;6.30;;
25045;SDS011;13044;49.304;12.840;2023-08-30T07:50:50;7.35;;;6.28;;
25045;SDS011;13044;49.304;12.840;2023-08-30T07:53:16;7.72;;;6.45;;
25045;SDS011;13044;49.304;12.840;2023-08-30T07:55:47;7.47;;;6.80;;
25045;SDS011;13044;49.304;12.840;2023-08-30T07:58:19;5.43;;;5.03;;
25045;SDS011;13044;49.304;12.840;2023-08-30T08:00:46;7.00;;;6.38;;
25045;SDS011;13044;49.304;12.840;2023-08-30T08:03:19;5.75;;;5.25;;
25045;SDS011;13044;49.304;12.840;2023-08-30T08:05:48;5.97;;;5.30;;
25045;SDS011;13044;49.304;12.840;2023-08-30T08:08:14;4.88;;;4.47;;
25045;SDS011;13044;49.304;12.840;2023-08-30T08:10:42;5.28;;;4.88;;
25045;SDS011;13044;49.304;12.840;2023-08-30T08:13:09;4.82;;;4.40;;
25045;SDS011;13044;49.304;12.840;2023-08-30T08:15:37;5.72;;;4.15;;
25045;SDS011;13044;49.304;12.840;2023-08-30T08:18:04;4.53;;;4.05;;
25045;SDS011;13044;49.304;12.840;2023-08-30T08:20:31;5.10;;;4.70;;
25045;SDS011;13044;49.304;12.840;2023-08-30T08:22:59;4.65;;;4.00;;
25045;SDS011;13044;49.304;12.840;2023-08-30T08:25:26;4.35;;;3.95;;
25045;SDS011;13044;49.304;12.840;2023-08-30T08:27:53;3.92;;;3.63;;
25045;SDS011;13044;49.304;12.840;2023-08-30T08:30:20;3.95;;;3.42;;
25045;SDS011;13044;49.304;12.840;2023-08-30T08:32:47;3.33;;;3.05;;
25045;SDS011;13044;49.304;12.840;2023-08-30T08:35:14;7.38;;;4.32;;
25045;SDS011;13044;49.304;12.840;2023-08-30T08:37:41;4.53;;;4.10;;
25045;SDS011;13044;49.304;12.840;2023-08-30T08:40:08;4.15;;;3.83;;
25045;SDS011;13044;49.304;12.840;2023-08-30T08:42:37;4.22;;;3.83;;
25045;SDS011;13044;49.304;12.840;2023-08-30T08:45:04;4.38;;;3.97;;
25045;SDS011;13044;49.304;12.840;2023-08-30T08:47:31;4.70;;;4.20;;
25045;SDS011;13044;49.304;12.840;2023-08-30T08:49:59;3.70;;;3.40;;
25045;SDS011;13044;49.304;12.840;2023-08-30T08:52:27;4.03;;;3.45;;
25045;SDS011;13044;49.304;12.840;2023-08-30T08:55:01;3.60;;;3.30;;
25045;SDS011;13044;49.304;12.840;2023-08-30T08:57:29;3.08;;;2.88;;
25045;SDS011;13044;49.304;12.840;2023-08-30T08:59:58;3.08;;;2.85;;
25045;SDS011;13044;49.304;12.840;2023-08-30T09:02:24;4.03;;;3.63;;
25045;SDS011;13044;49.304;12.840;2023-08-30T09:04:52;5.40;;;3.50;;
25045;SDS011;13044;49.304;12.840;2023-08-30T09:07:20;4.25;;;3.85;;
25045;SDS011;13044;49.304;12.840;2023-08-30T09:09:47;4.10;;;3.70;;
25045;SDS011;13044;49.304;12.840;2023-08-30T09:12:15;4.93;;;3.47;;
25045;SDS011;13044;49.304;12.840;2023-08-30T09:14:52;4.97;;;3.97;;
25045;SDS011;13044;49.304;12.840;2023-08-30T09:17:23;3.50;;;3.13;;
25045;SDS011;13044;49.304;12.840;2023-08-30T09:20:11;3.47;;;3.17;;
25045;SDS011;13044;49.304;12.840;2023-08-30T09:22:40;4.18;;;3.20;;
25045;SDS011;13044;49.304;12.840;2023-08-30T09:25:08;6.20;;;3.75;;
25045;SDS011;13044;49.304;12.840;2023-08-30T09:27:37;3.33;;;3.00;;
25045;SDS011;13044;49.304;12.840;2023-08-30T09:30:08;3.80;;;3.13;;
25045;SDS011;13044;49.304;12.840;2023-08-30T09:32:40;8.00;;;3.00;;
25045;SDS011;13044;49.304;12.840;2023-08-30T09:35:08;4.30;;;3.90;;
25045;SDS011;13044;49.304;12.840;2023-08-30T09:37:36;3.25;;;2.95;;
25045;SDS011;13044;49.304;12.840;2023-08-30T09:40:04;3.40;;;3.10;;
25045;SDS011;13044;49.304;12.840;2023-08-30T09:42:32;3.78;;;3.10;;
25045;SDS011;13044;49.304;12.840;2023-08-30T09:44:59;3.20;;;2.88;;
25045;SDS011;13044;49.304;12.840;2023-08-30T09:47:27;3.47;;;2.83;;
25045;SDS011;13044;49.304;12.840;2023-08-30T09:49:56;2.88;;;2.55;;
25045;SDS011;13044;49.304;12.840;2023-08-30T09:52:26;3.70;;;2.47;;
25045;SDS011;13044;49.304;12.840;2023-08-30T09:54:55;3.00;;;1.92;;
25045;SDS011;13044;49.304;12.840;2023-08-30T09:57:23;3.10;;;2.80;;
25045;SDS011;13044;49.304;12.840;2023-08-30T09:59:50;2.35;;;2.20;;
25045;SDS011;13044;49.304;12.840;2023-08-30T10:02:17;4.00;;;2.28;;
25045;SDS011;13044;49.304;12.840;2023-08-30T10:04:45;4.25;;;2.58;;
25045;SDS011;13044;49.304;12.840;2023-08-30T10:07:13;4.93;;;2.60;;
25045;SDS011;13044;49.304;12.840;2023-08-30T10:09:42;5.13;;;2.10;;
25045;SDS011;13044;49.304;12.840;2023-08-30T10:12:30;2.17;;;1.98;;
25045;SDS011;13044;49.304;12.840;2023-08-30T10:14:59;3.47;;;2.05;;
25045;SDS011;13044;49.304;12.840;2023-08-30T10:17:27;2.25;;;2.03;;
25045;SDS011;13044;49.304;12.840;2023-08-30T10:20:03;2.00;;;1.90;;
25045;SDS011;13044;49.304;12.840;2023-08-30T10:22:34;1.70;;;1.60;;
25045;SDS011;13044;49.304;12.840;2023-08-30T10:25:08;2.90;;;1.90;;
25045;SDS011;13044;49.304;12.840;2023-08-30T10:27:41;2.78;;;1.92;;
25045;SDS011;13044;49.304;12.840;2023-08-30T10:30:13;2.40;;;2.20;;
25045;SDS011;13044;49.304;12.840;2023-08-30T10:32:41;4.72;;;1.98;;
25045;SDS011;13044;49.304;12.840;2023-08-30T10:35:10;2.00;;;1.90;;
25045;SDS011;13044;49.304;12.840;2023-08-30T10:37:42;3.53;;;2.10;;
25045;SDS011;13044;49.304;12.840;2023-08-30T10:40:20;2.88;;;2.10;;
25045;SDS011;13044;49.304;12.840;2023-08-30T10:43:04;3.03;;;2.00;;
25045;SDS011;13044;49.304;12.840;2023-08-30T10:45:31;2.53;;;1.80;;
25045;SDS011;13044;49.304;12.840;2023-08-30T10:47:58;1.92;;;1.73;;
25045;SDS011;13044;49.304;12.840;2023-08-30T10:50:33;2.28;;;1.77;;
25045;SDS011;13044;49.304;12.840;2023-08-30T10:53:01;2.83;;;2.05;;
25045;SDS011;13044;49.304;12.840;2023-08-30T10:55:28;2.05;;;1.90;;
25045;SDS011;13044;49.304;12.840;2023-08-30T10:58:02;2.08;;;1.52;;
25045;SDS011;13044;49.304;12.840;2023-08-30T11:00:32;1.65;;;1.50;;
25045;SDS011;13044;49.304;12.840;2023-08-30T11:03:00;1.50;;;1.40;;
25045;SDS011;13044;49.304;12.840;2023-08-30T11:05:28;3.13;;;1.73;;
25045;SDS011;13044;49.304;12.840;2023-08-30T11:07:56;1.55;;;1.33;;
25045;SDS011;13044;49.304;12.840;2023-08-30T11:10:23;2.45;;;1.35;;
25045;SDS011;13044;49.304;12.840;2023-08-30T11:12:50;3.63;;;1.35;;
25045;SDS011;13044;49.304;12.840;2023-08-30T11:15:18;1.80;;;1.70;;
25045;SDS011;13044;49.304;12.840;2023-08-30T11:17:47;1.52;;;1.40;;
25045;SDS011;13044;49.304;12.840;2023-08-30T11:20:15;1.52;;;1.38;;
25045;SDS011;13044;49.304;12.840;2023-08-30T11:22:45;1.60;;;1.50;;
25045;SDS011;13044;49.304;12.840;2023-08-30T11:25:14;1.73;;;1.38;;
25045;SDS011;13044;49.304;12.840;2023-08-30T11:27:43;5.20;;;2.78;;
25045;SDS011;13044;49.304;12.840;2023-08-30T11:30:10;2.35;;;1.25;;
25045;SDS011;13044;49.304;12.840;2023-08-30T11:32:39;1.80;;;1.30;;
25045;SDS011;13044;49.304;12.840;2023-08-30T11:35:09;1.67;;;1.48;;
25045;SDS011;13044;49.304;12.840;2023-08-30T11:37:36;0.95;;;0.90;;
25045;SDS011;13044;49.304;12.840;2023-08-30T11:40:03;1.33;;;1.23;;
25045;SDS011;13044;49.304;12.840;2023-08-30T11:42:32;1.08;;;1.00;;
25045;SDS011;13044;49.304;12.840;2023-08-30T11:45:00;1.02;;;1.00;;
25045;SDS011;13044;49.304;12.840;2023-08-30T11:47:29;1.20;;;1.10;;
25045;SDS011;13044;49.304;12.840;2023-08-30T11:49:56;2.28;;;0.95;;
25045;SDS011;13044;49.304;12.840;2023-08-30T11:52:24;3.85;;;1.13;;
25045;SDS011;13044;49.304;12.840;2023-08-30T11:54:52;1.40;;;1.30;;
25045;SDS011;13044;49.304;12.840;2023-08-30T11:57:20;1.48;;;1.10;;
25045;SDS011;13044;49.304;12.840;2023-08-30T11:59:47;2.38;;;1.30;;
25045;SDS011;13044;49.304;12.840;2023-08-30T12:02:16;2.45;;;1.20;;
25045;SDS011;13044;49.304;12.840;2023-08-30T12:04:44;1.52;;;1.15;;
25045;SDS011;13044;49.304;12.840;2023-08-30T12:07:22;1.15;;;1.05;;
25045;SDS011;13044;49.304;12.840;2023-08-30T12:09:51;1.17;;;1.08;;
25045;SDS011;13044;49.304;12.840;2023-08-30T12:12:18;1.20;;;0.93;;
25045;SDS011;13044;49.304;12.840;2023-08-30T12:14:55;1.05;;;1.05;;
25045;SDS011;13044;49.304;12.840;2023-08-30T12:17:23;1.25;;;1.00;;
25045;SDS011;13044;49.304;12.840;2023-08-30T12:19:56;1.38;;;1.25;;
25045;SDS011;13044;49.304;12.840;2023-08-30T12:22:35;1.13;;;1.10;;
25045;SDS011;13044;49.304;12.840;2023-08-30T12:25:18;1.02;;;0.90;;
25045;SDS011;13044;49.304;12.840;2023-08-30T12:27:46;1.38;;;1.10;;
25045;SDS011;13044;49.304;12.840;2023-08-30T12:30:15;1.33;;;0.95;;
25045;SDS011;13044;49.304;12.840;2023-08-30T12:32:43;0.70;;;0.70;;
25045;SDS011;13044;49.304;12.840;2023-08-30T12:35:14;1.25;;;1.20;;
25045;SDS011;13044;49.304;12.840;2023-08-30T12:37:41;0.98;;;0.98;;
25045;SDS011;13044;49.304;12.840;2023-08-30T12:40:09;1.17;;;1.02;;
25045;SDS011;13044;49.304;12.840;2023-08-30T12:42:36;0.98;;;0.98;;
25045;SDS011;13044;49.304;12.840;2023-08-30T12:45:04;1.65;;;1.10;;
25045;SDS011;13044;49.304;12.840;2023-08-30T12:47:31;2.00;;;1.10;;
25045;SDS011;13044;49.304;12.840;2023-08-30T12:49:58;0.90;;;0.90;;
25045;SDS011;13044;49.304;12.840;2023-08-30T12:52:25;1.17;;;1.10;;
25045;SDS011;13044;49.304;12.840;2023-08-30T12:54:52;1.60;;;1.35;;
25045;SDS011;13044;49.304;12.840;2023-08-30T12:57:20;1.10;;;1.02;;
25045;SDS011;13044;49.304;12.840;2023-08-30T12:59:47;3.13;;;1.25;;
25045;SDS011;13044;49.304;12.840;2023-08-30T13:02:14;1.40;;;1.30;;
25045;SDS011;13044;49.304;12.840;2023-08-30T13:04:41;1.13;;;1.10;;
25045;SDS011;13044;49.304;12.840;2023-08-30T13:07:08;1.65;;;1.45;;
25045;SDS011;13044;49.304;12.840;2023-08-30T13:09:35;1.08;;;1.08;;
25045;SDS011;13044;49.304;12.840;2023-08-30T13:12:02;1.48;;;1.38;;
25045;SDS011;13044;49.304;12.840;2023-08-30T13:14:30;1.30;;;1.10;;
25045;SDS011;13044;49.304;12.840;2023-08-30T13:16:57;1.33;;;1.23;;
25045;SDS011;13044;49.304;12.840;2023-08-30T13:19:24;2.45;;;1.30;;
25045;SDS011;13044;49.304;12.840;2023-08-30T13:21:51;1.90;;;1.33;;
25045;SDS011;13044;49.304;12.840;2023-08-30T13:24:17;2.03;;;1.40;;
25045;SDS011;13044;49.304;12.840;2023-08-30T13:26:44;1.98;;;1.50;;
25045;SDS011;13044;49.304;12.840;2023-08-30T13:29:11;1.30;;;1.20;;
25045;SDS011;13044;49.304;12.840;2023-08-30T13:31:38;1.55;;;1.30;;
25045;SDS011;13044;49.304;12.840;2023-08-30T13:34:05;2.78;;;1.48;;
25045;SDS011;13044;49.304;12.840;2023-08-30T13:36:32;1.50;;;1.40;;
25045;SDS011;13044;49.304;12.840;2023-08-30T13:38:59;1.20;;;1.02;;
25045;SDS011;13044;49.304;12.840;2023-08-30T13:41:26;4.10;;;1.48;;
25045;SDS011;13044;49.304;12.840;2023-08-30T13:43:53;1.48;;;1.20;;
25045;SDS011;13044;49.304;12.840;2023-08-30T13:46:24;1.80;;;1.40;;
25045;SDS011;13044;49.304;12.840;2023-08-30T13:48:51;2.90;;;1.75;;
25045;SDS011;13044;49.304;12.840;2023-08-30T13:51:25;1.55;;;1.45;;
25045;SDS011;13044;49.304;12.840;2023-08-30T13:53:52;1.90;;;1.48;;
25045;SDS011;13044;49.304;12.840;2023-08-30T13:56:19;4.80;;;1.65;;
25045;SDS011;13044;49.304;12.840;2023-08-30T13:58:46;4.07;;;1.95;;
25045;SDS011;13044;49.304;12.840;2023-08-30T14:01:13;1.13;;;1.02;;
25045;SDS011;13044;49.304;12.840;2023-08-30T14:03:41;1.48;;;1.30;;
25045;SDS011;13044;49.304;12.840;2023-08-30T14:06:08;1.27;;;1.15;;
25045;SDS011;13044;49.304;12.840;2023-08-30T14:08:35;1.50;;;1.40;;
25045;SDS011;13044;49.304;12.840;2023-08-30T14:11:02;1.23;;;1.13;;
25045;SDS011;13044;49.304;12.840;2023-08-30T14:13:30;1.33;;;1.17;;
25045;SDS011;13044;49.304;12.840;2023-08-30T14:16:00;3.03;;;1.60;;
25045;SDS011;13044;49.304;12.840;2023-08-30T14:18:29;1.30;;;1.20;;
25045;SDS011;13044;49.304;12.840;2023-08-30T14:20:57;1.27;;;1.17;;
25045;SDS011;13044;49.304;12.840;2023-08-30T14:23:25;1.23;;;1.13;;
25045;SDS011;13044;49.304;12.840;2023-08-30T14:26:00;1.60;;;1.30;;
25045;SDS011;13044;49.304;12.840;2023-08-30T14:28:39;1.25;;;1.15;;
25045;SDS011;13044;49.304;12.840;2023-08-30T14:31:09;1.70;;;1.40;;
25045;SDS011;13044;49.304;12.840;2023-08-30T14:33:37;1.40;;;1.30;;
25045;SDS011;13044;49.304;12.840;2023-08-30T14:36:09;1.08;;;1.00;;
25045;SDS011;13044;49.304;12.840;2023-08-30T14:38:37;1.20;;;1.10;;
25045;SDS011;13044;49.304;12.840;2023-08-30T14:41:04;1.30;;;1.20;;
25045;SDS011;13044;49.304;12.840;2023-08-30T14:43:31;1.52;;;1.10;;